Time;durP1;ratioP1;P1;durP2;ratioP2;P2;SDS_P1;SDS_P2;PMS_P1;PMS_P2;Temp;Humidity;BMP_temperature;BMP_pressure;BME280_temperature;BME280_humidity;BME280_pressure;Samples;Min_cycle;Max_cycle;Signal;HPM_P1;HPM_P2
2021/06/08 00:00:21;;;;;;;14.38;8.63;;;16.90;99.90;;;;;;4955097;29;20027;-71
2021/06/08 00:02:50;;;;;;;10.52;7.90;;;16.70;99.90;;;;;;4955582;28;20035;-72
2021/06/08 00:05:18;;;;;;;14.32;9.77;;;16.50;99.90;;;;;;4955745;28;20035;-71
2021/06/08 00:07:44;;;;;;;26.05;10.00;;;16.40;99.90;;;;;;4956833;29;20509;-72
2021/06/08 00:10:10;;;;;;;7.95;5.53;;;16.30;99.90;;;;;;4958122;29;20462;-73
2021/06/08 00:12:36;;;;;;;7.63;5.10;;;15.90;99.90;;;;;;4960435;28;20351;-72
2021/06/08 00:15:03;;;;;;;5.38;4.03;;;15.70;99.90;;;;;;4960796;28;20038;-72
2021/06/08 00:17:30;;;;;;;9.88;4.57;;;15.70;99.90;;;;;;4955650;29;20019;-72
2021/06/08 00:19:56;;;;;;;30.20;6.10;;;15.70;99.90;;;;;;4955276;29;20024;-72
2021/06/08 00:22:22;;;;;;;13.20;5.30;;;15.80;99.90;;;;;;4957542;29;20038;-72
2021/06/08 00:24:47;;;;;;;13.93;5.82;;;15.70;99.90;;;;;;4956588;28;20031;-72
2021/06/08 00:27:13;;;;;;;20.05;6.38;;;15.60;99.90;;;;;;4956111;28;20375;-71
2021/06/08 00:29:39;;;;;;;15.95;6.47;;;15.70;99.90;;;;;;4954670;29;20031;-71
2021/06/08 00:32:04;;;;;;;10.27;6.05;;;15.70;99.90;;;;;;4955235;28;20086;-71
2021/06/08 00:34:30;;;;;;;13.82;7.03;;;15.70;99.90;;;;;;4955117;28;20027;-71
2021/06/08 00:36:56;;;;;;;9.50;5.45;;;15.80;99.90;;;;;;4954967;28;20019;-72
2021/06/08 00:39:21;;;;;;;9.25;5.25;;;15.80;99.90;;;;;;4954803;29;20069;-71
2021/06/08 00:41:47;;;;;;;10.70;5.63;;;15.90;99.90;;;;;;4955022;29;20054;-71
2021/06/08 00:44:14;;;;;;;10.48;5.68;;;16.10;99.90;;;;;;4955202;29;20024;-73
2021/06/08 00:46:41;;;;;;;7.30;4.88;;;16.00;99.90;;;;;;4955068;28;20409;-72
2021/06/08 00:49:07;;;;;;;7.90;5.60;;;16.00;99.90;;;;;;4956478;29;20054;-71
2021/06/08 00:51:33;;;;;;;7.93;5.35;;;16.00;99.90;;;;;;4971856;28;20031;-73
2021/06/08 00:54:05;;;;;;;7.88;5.60;;;15.90;99.90;;;;;;4955220;29;20034;-73
2021/06/08 00:56:31;;;;;;;9.90;6.25;;;15.90;99.90;;;;;;4955063;28;20030;-72
2021/06/08 00:58:57;;;;;;;8.63;6.15;;;16.00;99.90;;;;;;4955120;29;20028;-72
2021/06/08 01:01:22;;;;;;;6.28;5.68;;;16.10;99.90;;;;;;4954140;29;20042;-72
2021/06/08 01:03:48;;;;;;;12.35;6.35;;;16.00;99.90;;;;;;4954497;29;20031;-72
2021/06/08 01:06:13;;;;;;;17.92;7.70;;;16.10;99.90;;;;;;4954140;28;20528;-72
2021/06/08 01:08:39;;;;;;;9.35;8.30;;;16.10;99.90;;;;;;4954144;29;20050;-72
2021/06/08 01:11:05;;;;;;;10.02;7.13;;;16.10;99.90;;;;;;4953913;29;20110;-72
2021/06/08 01:13:30;;;;;;;11.38;7.35;;;16.00;99.90;;;;;;4954666;29;20382;-72
2021/06/08 01:15:56;;;;;;;16.23;7.97;;;16.00;99.90;;;;;;4954521;28;20047;-72
2021/06/08 01:18:22;;;;;;;9.15;7.93;;;16.00;99.90;;;;;;4954180;28;20031;-71
2021/06/08 01:20:53;;;;;;;10.60;8.32;;;16.00;99.90;;;;;;4953801;28;20090;-71
2021/06/08 01:23:19;;;;;;;9.80;8.27;;;16.00;99.90;;;;;;4954414;29;20098;-72
2021/06/08 01:25:45;;;;;;;8.07;6.85;;;16.00;99.90;;;;;;4954098;28;20456;-71
2021/06/08 01:28:11;;;;;;;9.35;7.22;;;15.90;99.90;;;;;;4954233;29;20130;-71
2021/06/08 01:30:37;;;;;;;11.52;7.30;;;15.90;99.90;;;;;;4953651;29;20118;-72
2021/06/08 01:33:04;;;;;;;7.53;6.80;;;15.80;99.90;;;;;;4953966;28;20023;-71
2021/06/08 01:35:31;;;;;;;21.42;6.72;;;15.70;99.90;;;;;;4953973;28;20074;-72
2021/06/08 01:37:57;;;;;;;6.75;6.13;;;15.60;99.90;;;;;;4954044;29;20027;-72
2021/06/08 01:40:23;;;;;;;12.48;7.00;;;15.60;99.90;;;;;;4953438;29;20035;-71
2021/06/08 01:42:49;;;;;;;11.75;7.22;;;15.70;99.90;;;;;;4954089;29;20474;-71
2021/06/08 01:45:16;;;;;;;11.93;7.97;;;15.70;99.90;;;;;;4953767;28;20039;-71
2021/06/08 01:47:43;;;;;;;8.80;7.90;;;15.80;99.90;;;;;;4953801;29;20031;-72
2021/06/08 01:50:09;;;;;;;14.77;8.82;;;15.90;99.90;;;;;;4952841;29;20034;-72
2021/06/08 01:52:40;;;;;;;12.20;9.68;;;15.90;99.90;;;;;;4953898;28;20498;-71
2021/06/08 01:55:09;;;;;;;12.95;9.40;;;16.00;99.90;;;;;;4953774;28;20470;-72
2021/06/08 01:57:40;;;;;;;14.38;9.57;;;15.90;99.90;;;;;;4953809;29;20030;-72
2021/06/08 02:00:07;;;;;;;13.20;9.33;;;15.90;99.90;;;;;;4952666;29;20024;-72
2021/06/08 02:03:05;;;;;;;10.20;8.57;;;15.90;99.90;;;;;;4953898;28;20037;-72
2021/06/08 02:05:50;;;;;;;9.40;8.45;;;15.80;99.90;;;;;;4953468;28;20042;-72
2021/06/08 02:08:34;;;;;;;12.13;9.82;;;15.70;99.90;;;;;;4953482;29;20359;-73
2021/06/08 02:11:17;;;;;;;9.98;8.98;;;15.90;99.90;;;;;;4952906;29;20505;-71
2021/06/08 02:13:49;;;;;;;10.80;8.43;;;15.80;99.90;;;;;;4953630;28;20042;-72
2021/06/08 02:16:43;;;;;;;9.85;8.90;;;15.70;99.90;;;;;;4953514;28;20023;-70
2021/06/08 02:19:10;;;;;;;8.15;7.35;;;15.60;99.90;;;;;;4994329;23;20050;-74
2021/06/08 02:21:43;;;;;;;8.93;8.07;;;15.70;99.90;;;;;;4991053;28;20109;-74
2021/06/08 02:24:11;;;;;;;8.40;7.60;;;15.70;99.90;;;;;;4990966;28;20145;-73
2021/06/08 02:26:41;;;;;;;9.40;8.38;;;15.70;99.90;;;;;;4991743;28;20053;-74
2021/06/08 02:29:08;;;;;;;11.13;8.10;;;15.70;99.90;;;;;;4992088;28;20030;-74
2021/06/08 02:31:35;;;;;;;9.70;8.15;;;15.70;99.90;;;;;;4991454;28;20056;-74
2021/06/08 02:34:02;;;;;;;9.23;6.90;;;15.60;99.90;;;;;;4992084;28;20377;-74
2021/06/08 02:36:29;;;;;;;10.13;7.45;;;15.70;99.90;;;;;;4992182;28;20560;-73
2021/06/08 02:38:57;;;;;;;9.35;7.88;;;15.60;99.90;;;;;;4991530;28;20150;-73
2021/06/08 02:41:24;;;;;;;9.75;7.57;;;15.60;99.90;;;;;;4991421;28;20026;-74
2021/06/08 02:43:52;;;;;;;8.90;8.07;;;15.60;99.90;;;;;;4992022;28;20034;-74
2021/06/08 02:46:21;;;;;;;8.80;7.90;;;15.70;99.90;;;;;;4991651;28;20022;-73
2021/06/08 02:48:47;;;;;;;8.20;7.45;;;15.60;99.90;;;;;;4991836;28;20022;-74
2021/06/08 02:51:13;;;;;;;10.10;8.40;;;15.60;99.90;;;;;;4991417;28;20077;-74
2021/06/08 02:53:41;;;;;;;13.90;9.45;;;15.70;99.90;;;;;;4992121;28;20030;-74
2021/06/08 02:56:08;;;;;;;12.18;9.70;;;15.90;99.90;;;;;;4992313;28;20679;-74
2021/06/08 02:58:35;;;;;;;13.10;10.55;;;16.00;99.90;;;;;;5006429;28;20045;-73
2021/06/08 03:01:00;;;;;;;10.82;9.27;;;15.90;99.90;;;;;;5011966;28;20030;-74
2021/06/08 03:03:36;;;;;;;10.18;9.13;;;15.80;99.90;;;;;;4990761;28;20361;-74
2021/06/08 03:06:33;;;;;;;8.88;8.02;;;15.80;99.90;;;;;;4991820;28;20034;-74
2021/06/08 03:09:03;;;;;;;9.27;8.38;;;15.70;99.90;;;;;;4990596;28;20034;-70
2021/06/08 03:11:59;;;;;;;11.18;8.70;;;15.70;99.90;;;;;;4990994;28;20506;-72
2021/06/08 03:14:26;;;;;;;8.88;8.00;;;15.70;99.90;;;;;;4990819;28;20493;-71
2021/06/08 03:16:59;;;;;;;10.20;8.32;;;15.70;99.90;;;;;;4991549;28;20030;-72
2021/06/08 03:19:29;;;;;;;8.35;7.50;;;15.70;99.90;;;;;;4990979;28;20105;-72
2021/06/08 03:21:59;;;;;;;10.40;9.02;;;15.70;99.90;;;;;;4990181;28;20089;-71
2021/06/08 03:24:30;;;;;;;11.10;7.65;;;15.80;99.90;;;;;;4991614;28;20026;-72
2021/06/08 03:26:58;;;;;;;12.88;9.40;;;15.80;99.90;;;;;;4973811;28;20037;-72
2021/06/08 03:29:25;;;;;;;8.63;7.82;;;15.90;99.90;;;;;;4990893;28;20080;-73
2021/06/08 03:31:51;;;;;;;9.52;8.07;;;15.90;99.90;;;;;;4977020;28;20023;-73
2021/06/08 03:34:18;;;;;;;9.27;8.40;;;15.90;99.90;;;;;;4993717;28;20550;-73
2021/06/08 03:36:47;;;;;;;13.93;8.98;;;15.80;99.90;;;;;;4977234;28;20030;-72
2021/06/08 03:39:14;;;;;;;13.95;9.50;;;15.90;99.90;;;;;;4994601;28;20049;-72
2021/06/08 03:41:41;;;;;;;11.32;10.13;;;15.90;99.90;;;;;;4994417;28;20537;-72
2021/06/08 03:44:07;;;;;;;11.35;9.00;;;16.00;99.90;;;;;;4994575;28;20045;-72
2021/06/08 03:46:36;;;;;;;10.43;9.00;;;16.10;99.90;;;;;;4994882;28;20030;-72
2021/06/08 03:49:03;;;;;;;12.68;9.65;;;16.10;99.90;;;;;;4994778;28;20038;-73
2021/06/08 03:51:32;;;;;;;11.02;9.23;;;16.10;99.90;;;;;;4993556;28;20027;-74
2021/06/08 03:53:59;;;;;;;11.27;10.18;;;16.10;99.90;;;;;;4995165;28;20113;-73
2021/06/08 03:56:25;;;;;;;14.73;9.27;;;16.00;99.90;;;;;;4994385;28;20034;-73
2021/06/08 03:58:54;;;;;;;10.95;9.77;;;16.00;99.90;;;;;;4994810;28;20026;-73
2021/06/08 04:01:20;;;;;;;9.40;8.50;;;15.90;99.90;;;;;;4993773;28;20029;-73
2021/06/08 04:03:50;;;;;;;11.70;10.50;;;15.90;99.90;;;;;;4994714;28;20054;-73
2021/06/08 04:06:18;;;;;;;9.88;8.88;;;16.00;99.90;;;;;;4976750;28;20034;-73
2021/06/08 04:08:44;;;;;;;10.38;9.27;;;16.00;99.90;;;;;;4994363;28;20113;-74
2021/06/08 04:11:11;;;;;;;10.50;9.50;;;16.00;99.90;;;;;;4994353;28;20101;-73
2021/06/08 04:13:40;;;;;;;12.15;9.82;;;16.00;99.90;;;;;;4994341;28;20085;-73
2021/06/08 04:16:09;;;;;;;11.13;9.25;;;16.00;99.90;;;;;;4994146;28;20502;-72
2021/06/08 04:18:36;;;;;;;9.98;9.02;;;15.90;99.90;;;;;;4994208;28;20105;-73
2021/06/08 04:21:03;;;;;;;10.20;8.75;;;15.90;99.90;;;;;;4993519;28;20037;-73
2021/06/08 04:23:29;;;;;;;10.85;8.98;;;15.90;99.90;;;;;;4994069;28;20038;-72
2021/06/08 04:25:56;;;;;;;10.63;9.48;;;16.00;99.90;;;;;;4994094;28;20088;-73
2021/06/08 04:28:23;;;;;;;10.32;9.32;;;16.00;99.90;;;;;;4994022;28;20080;-73
2021/06/08 04:30:50;;;;;;;9.43;8.13;;;16.00;99.90;;;;;;4993272;28;20026;-72
2021/06/08 04:33:28;;;;;;;11.20;8.10;;;16.00;99.90;;;;;;4983024;28;20065;-73
2021/06/08 04:35:54;;;;;;;10.15;9.05;;;16.10;99.90;;;;;;4993484;28;20384;-72
2021/06/08 04:38:20;;;;;;;13.30;9.27;;;16.20;99.90;;;;;;4993017;28;20034;-71
2021/06/08 04:40:48;;;;;;;9.10;8.30;;;16.30;99.90;;;;;;5000176;28;20077;-71
2021/06/08 04:43:14;;;;;;;10.15;8.35;;;16.30;99.90;;;;;;4991245;28;20030;-72
2021/06/08 04:45:40;;;;;;;9.90;8.43;;;16.00;99.90;;;;;;4993625;28;20129;-71
2021/06/08 04:48:07;;;;;;;8.40;7.65;;;16.00;99.90;;;;;;4993634;28;20022;-72
2021/06/08 04:50:33;;;;;;;8.02;7.32;;;15.90;99.90;;;;;;4987210;28;20019;-72
2021/06/08 04:53:03;;;;;;;8.52;7.72;;;16.10;99.90;;;;;;4978010;28;20030;-72
2021/06/08 04:55:30;;;;;;;9.80;7.22;;;16.10;99.90;;;;;;4973071;28;20369;-72
2021/06/08 04:57:55;;;;;;;9.43;7.38;;;16.20;99.90;;;;;;4973902;28;20097;-72
2021/06/08 05:00:56;;;;;;;8.60;7.88;;;16.30;99.90;;;;;;4972942;28;20031;-72
2021/06/08 05:03:27;;;;;;;9.20;8.32;;;16.50;99.90;;;;;;4973574;28;20042;-72
2021/06/08 05:05:56;;;;;;;10.05;7.95;;;16.60;99.90;;;;;;4973348;28;20051;-72
2021/06/08 05:08:28;;;;;;;8.65;6.70;;;16.60;99.90;;;;;;4973240;28;20508;-71
2021/06/08 05:11:07;;;;;;;7.28;6.57;;;16.60;99.90;;;;;;4973268;28;20019;-74
2021/06/08 05:13:34;;;;;;;7.15;6.05;;;16.70;99.90;;;;;;4973306;28;20054;-73
2021/06/08 05:16:02;;;;;;;8.63;6.93;;;16.80;99.90;;;;;;4973209;28;20110;-74
2021/06/08 05:18:29;;;;;;;6.90;6.20;;;16.80;99.90;;;;;;4973558;28;20074;-74
2021/06/08 05:20:55;;;;;;;7.68;5.88;;;16.90;99.90;;;;;;4975353;28;20038;-72
2021/06/08 05:23:22;;;;;;;6.95;6.35;;;17.00;99.90;;;;;;4992420;28;20038;-73
2021/06/08 05:25:52;;;;;;;9.43;6.40;;;17.00;99.90;;;;;;4986806;28;20941;-69
2021/06/08 05:28:19;;;;;;;6.50;5.82;;;16.80;99.90;;;;;;4991335;28;20026;-76
2021/06/08 05:30:46;;;;;;;7.38;6.53;;;16.80;99.90;;;;;;4991988;28;20133;-75
2021/06/08 05:33:17;;;;;;;9.50;6.50;;;16.80;99.90;;;;;;4992442;28;20030;-74
2021/06/08 05:35:44;;;;;;;7.10;6.47;;;16.70;99.90;;;;;;4974837;28;20113;-75
2021/06/08 05:38:09;;;;;;;6.88;6.18;;;16.60;99.90;;;;;;4992156;28;20076;-75
2021/06/08 05:40:37;;;;;;;7.35;6.65;;;16.70;99.90;;;;;;4992022;28;20034;-74
2021/06/08 05:43:03;;;;;;;6.68;5.72;;;16.80;99.90;;;;;;4990327;28;20200;-74
2021/06/08 05:45:33;;;;;;;9.60;6.03;;;16.80;99.90;;;;;;4991941;28;20050;-75
2021/06/08 05:47:59;;;;;;;6.75;6.15;;;16.90;99.90;;;;;;4992519;28;20061;-76
2021/06/08 05:50:25;;;;;;;6.90;6.05;;;16.80;99.90;;;;;;4973907;28;20022;-74
2021/06/08 05:52:54;;;;;;;6.53;5.93;;;16.90;99.90;;;;;;4991938;28;20026;-74
2021/06/08 05:55:25;;;;;;;8.63;6.07;;;16.70;99.90;;;;;;4992592;28;20439;-75
2021/06/08 05:57:55;;;;;;;12.63;6.85;;;16.80;99.90;;;;;;4992485;28;20496;-75
2021/06/08 06:00:22;;;;;;;6.88;6.10;;;17.00;99.90;;;;;;4975048;28;20058;-75
2021/06/08 06:02:49;;;;;;;7.78;6.45;;;17.00;99.90;;;;;;4972612;28;20109;-76
2021/06/08 06:05:15;;;;;;;6.43;5.82;;;17.00;99.90;;;;;;4954600;28;20019;-74
2021/06/08 06:07:42;;;;;;;7.63;6.40;;;16.90;99.90;;;;;;4990403;28;20484;-74
2021/06/08 06:10:09;;;;;;;7.50;6.80;;;16.70;99.90;;;;;;4985727;28;20046;-75
2021/06/08 06:12:39;;;;;;;8.52;6.55;;;16.80;99.90;;;;;;4979225;28;20722;-77
2021/06/08 06:15:09;;;;;;;9.82;6.22;;;16.80;99.90;;;;;;4991885;28;20138;-77
2021/06/08 06:17:37;;;;;;;7.47;6.68;;;16.90;99.90;;;;;;4992642;28;20030;-75
2021/06/08 06:20:11;;;;;;;10.77;6.93;;;16.90;99.90;;;;;;4974390;28;20465;-74
2021/06/08 06:22:38;;;;;;;10.15;7.20;;;17.10;99.90;;;;;;4991776;28;20030;-76
2021/06/08 06:25:07;;;;;;;6.80;6.15;;;17.10;99.90;;;;;;4992213;28;20050;-76
2021/06/08 06:27:34;;;;;;;6.95;6.35;;;17.20;99.90;;;;;;4991991;28;20026;-76
2021/06/08 06:30:00;;;;;;;10.90;6.72;;;17.30;99.90;;;;;;4991553;28;20477;-77
2021/06/08 06:32:26;;;;;;;15.20;8.88;;;17.20;99.90;;;;;;4995720;28;20109;-75
2021/06/08 06:34:52;;;;;;;8.15;7.35;;;16.90;99.90;;;;;;4993356;28;20030;-74
2021/06/08 06:37:23;;;;;;;7.85;7.07;;;16.90;99.90;;;;;;4979938;28;20031;-76
2021/06/08 06:39:50;;;;;;;8.73;6.50;;;16.90;99.90;;;;;;4996412;28;20381;-76
2021/06/08 06:42:17;;;;;;;9.88;8.00;;;16.70;99.90;;;;;;4977706;28;20030;-75
2021/06/08 06:44:43;;;;;;;12.00;8.02;;;16.90;99.90;;;;;;4994007;28;20400;-75
2021/06/08 06:47:09;;;;;;;8.73;7.80;;;16.90;99.90;;;;;;4989184;28;20026;-75
2021/06/08 06:49:35;;;;;;;13.23;9.10;;;16.80;99.90;;;;;;4991739;28;20525;-76
2021/06/08 06:52:03;;;;;;;15.77;10.07;;;16.80;99.90;;;;;;4991838;28;20022;-76
2021/06/08 06:54:30;;;;;;;9.90;8.00;;;16.80;99.90;;;;;;4974611;28;20029;-75
2021/06/08 06:57:00;;;;;;;11.80;9.32;;;16.80;99.90;;;;;;4992386;28;20030;-76
2021/06/08 06:59:26;;;;;;;10.45;8.30;;;17.00;99.90;;;;;;4991577;28;20100;-75
2021/06/08 07:01:52;;;;;;;13.73;9.90;;;17.00;99.90;;;;;;4992098;28;20099;-75
2021/06/08 07:04:21;;;;;;;12.45;10.20;;;16.90;99.90;;;;;;4979357;28;20114;-76
2021/06/08 07:06:46;;;;;;;13.45;10.77;;;16.80;99.90;;;;;;4976175;28;20504;-76
2021/06/08 07:09:13;;;;;;;13.18;10.45;;;16.80;99.90;;;;;;4960661;28;20063;-76
2021/06/08 07:11:39;;;;;;;12.85;9.88;;;16.90;99.90;;;;;;4958547;28;20114;-76
2021/06/08 07:14:06;;;;;;;14.15;10.45;;;17.00;99.90;;;;;;4976315;28;20046;-76
2021/06/08 07:16:32;;;;;;;12.20;10.15;;;16.90;99.90;;;;;;4988930;28;20505;-76
2021/06/08 07:18:58;;;;;;;15.23;10.80;;;17.10;99.90;;;;;;4995658;28;20042;-76
2021/06/08 07:21:25;;;;;;;12.93;9.98;;;17.00;99.90;;;;;;4994749;28;20044;-76
2021/06/08 07:23:53;;;;;;;14.13;10.38;;;17.10;99.90;;;;;;4994993;28;20413;-76
2021/06/08 07:26:20;;;;;;;14.32;10.55;;;17.20;99.90;;;;;;4978333;28;20446;-77
2021/06/08 07:28:47;;;;;;;16.35;11.40;;;17.10;99.90;;;;;;4994928;28;20049;-77
2021/06/08 07:31:22;;;;;;;17.67;11.57;;;17.00;99.90;;;;;;4994964;28;20094;-76
2021/06/08 07:34:01;;;;;;;16.20;10.48;;;17.00;99.90;;;;;;4995436;28;20041;-76
2021/06/08 07:36:45;;;;;;;13.63;10.10;;;17.20;99.90;;;;;;4995518;28;20037;-77
2021/06/08 07:39:22;;;;;;;16.58;10.35;;;17.30;99.90;;;;;;4996505;28;20022;-73
2021/06/08 07:41:56;;;;;;;17.02;11.57;;;17.50;99.90;;;;;;4995384;28;20042;-75
2021/06/08 07:44:32;;;;;;;14.57;10.35;;;17.60;99.90;;;;;;4977658;28;20026;-76
2021/06/08 07:47:06;;;;;;;16.55;11.10;;;17.70;99.90;;;;;;4996815;28;20484;-76
2021/06/08 07:49:34;;;;;;;15.05;11.20;;;17.70;99.90;;;;;;4994861;28;20026;-74
2021/06/08 07:52:04;;;;;;;14.30;11.20;;;17.70;99.90;;;;;;4978074;28;20080;-73
2021/06/08 07:54:32;;;;;;;15.63;12.48;;;17.60;99.90;;;;;;4995480;28;20033;-74
2021/06/08 07:56:58;;;;;;;18.02;12.15;;;17.90;99.90;;;;;;4995675;28;20068;-74
2021/06/08 07:59:24;;;;;;;18.73;11.73;;;17.80;99.90;;;;;;4994897;28;20062;-75
2021/06/08 08:01:49;;;;;;;23.13;11.63;;;17.90;99.90;;;;;;4995271;28;20575;-74
2021/06/08 08:04:20;;;;;;;21.20;13.98;;;18.20;99.90;;;;;;4995267;28;20035;-75
2021/06/08 08:06:51;;;;;;;18.13;12.80;;;18.40;99.90;;;;;;4994507;28;20033;-73
2021/06/08 08:09:19;;;;;;;20.70;14.20;;;18.40;99.90;;;;;;4995391;28;20502;-73
2021/06/08 08:11:46;;;;;;;18.60;13.38;;;18.70;99.90;;;;;;4993739;28;20476;-72
2021/06/08 08:14:15;;;;;;;16.45;12.30;;;18.70;99.90;;;;;;4977811;28;20041;-72
2021/06/08 08:16:47;;;;;;;17.58;13.15;;;18.70;99.90;;;;;;4994735;28;20037;-72
2021/06/08 08:19:15;;;;;;;17.27;13.05;;;18.70;99.90;;;;;;4994680;28;20105;-72
2021/06/08 08:21:41;;;;;;;18.00;13.10;;;18.50;99.90;;;;;;4994579;28;20081;-73
2021/06/08 08:24:07;;;;;;;20.38;14.85;;;18.80;99.90;;;;;;4994181;28;20034;-73
2021/06/08 08:26:33;;;;;;;20.73;14.25;;;18.70;99.90;;;;;;4994416;28;20076;-73
2021/06/08 08:29:00;;;;;;;19.00;13.82;;;18.60;99.90;;;;;;4994370;28;20022;-73
2021/06/08 08:31:29;;;;;;;18.52;13.45;;;19.00;99.90;;;;;;4993945;28;20026;-73
2021/06/08 08:33:56;;;;;;;17.20;14.18;;;19.10;99.90;;;;;;4994511;28;20053;-73
2021/06/08 08:36:22;;;;;;;21.10;13.32;;;19.20;99.90;;;;;;4994552;28;20172;-73
2021/06/08 08:38:48;;;;;;;22.63;13.80;;;19.20;99.90;;;;;;5012340;28;20060;-74
2021/06/08 08:41:13;;;;;;;25.42;15.50;;;19.30;99.90;;;;;;4997530;28;20532;-74
2021/06/08 08:43:46;;;;;;;26.42;14.90;;;19.30;99.90;;;;;;4976578;28;20066;-74
2021/06/08 08:46:12;;;;;;;19.02;14.82;;;19.70;99.90;;;;;;4994314;28;20030;-74
2021/06/08 08:48:43;;;;;;;25.40;16.40;;;19.70;99.90;;;;;;4993745;28;20023;-74
2021/06/08 08:51:12;;;;;;;20.17;15.52;;;19.80;99.90;;;;;;4993167;28;20073;-74
2021/06/08 08:53:38;;;;;;;20.83;15.73;;;19.70;99.90;;;;;;4993112;28;20026;-74
2021/06/08 08:56:04;;;;;;;22.98;15.48;;;19.80;99.90;;;;;;4976170;28;20038;-73
2021/06/08 08:58:30;;;;;;;20.10;15.23;;;19.80;99.90;;;;;;4993868;28;20026;-74
2021/06/08 09:00:57;;;;;;;17.55;15.52;;;19.70;99.90;;;;;;4993173;28;20026;-73
2021/06/08 09:03:24;;;;;;;17.48;15.38;;;19.60;99.90;;;;;;4993938;28;20026;-73
2021/06/08 09:05:53;;;;;;;19.17;16.38;;;20.10;99.90;;;;;;4993637;28;20089;-74
2021/06/08 09:08:19;;;;;;;22.92;16.13;;;20.30;99.90;;;;;;4993336;28;20037;-74
2021/06/08 09:10:47;;;;;;;23.40;16.30;;;20.00;99.90;;;;;;4993022;28;20101;-73
2021/06/08 09:13:13;;;;;;;20.60;15.85;;;19.80;99.90;;;;;;4993729;28;20401;-73
2021/06/08 09:15:38;;;;;;;22.48;17.02;;;19.90;99.90;;;;;;4993107;28;20034;-74
2021/06/08 09:18:04;;;;;;;19.63;16.45;;;20.00;99.90;;;;;;4993389;28;20122;-73
2021/06/08 09:20:31;;;;;;;24.27;17.25;;;20.20;99.90;;;;;;4992212;28;20440;-73
2021/06/08 09:23:01;;;;;;;23.65;17.83;;;19.90;99.90;;;;;;4993271;28;20097;-72
2021/06/08 09:25:40;;;;;;;23.17;17.63;;;19.70;99.90;;;;;;4993256;28;20022;-73
2021/06/08 09:28:44;;;;;;;21.65;16.48;;;19.90;99.90;;;;;;4992518;28;20037;-74
2021/06/08 09:31:23;;;;;;;27.65;17.55;;;20.20;99.90;;;;;;4948968;28;20404;-74
2021/06/08 09:33:53;;;;;;;22.40;17.80;;;20.50;99.90;;;;;;4992863;28;20029;-73
2021/06/08 09:36:28;;;;;;;25.55;17.88;;;20.80;99.90;;;;;;4992752;28;20027;-73
2021/06/08 09:38:55;;;;;;;19.23;17.17;;;21.00;99.90;;;;;;4992273;28;20096;-73
2021/06/08 09:41:32;;;;;;;21.23;17.08;;;21.00;99.90;;;;;;4992335;28;20579;-73
2021/06/08 09:44:16;;;;;;;21.92;15.80;;;20.70;99.90;;;;;;4992539;28;20034;-75
2021/06/08 09:46:47;;;;;;;22.80;18.13;;;20.80;99.90;;;;;;4992877;28;20030;-75
2021/06/08 09:49:16;;;;;;;21.58;16.85;;;21.00;99.90;;;;;;4992344;28;20109;-75
2021/06/08 09:51:54;;;;;;;28.80;19.60;;;21.30;99.90;;;;;;4991992;28;20026;-75
2021/06/08 09:54:38;;;;;;;22.10;16.88;;;21.60;99.90;;;;;;4992519;28;20027;-75
2021/06/08 09:57:26;;;;;;;20.88;17.60;;;21.70;99.90;;;;;;4992351;28;20034;-75
2021/06/08 10:00:07;;;;;;;24.52;18.05;;;21.70;99.90;;;;;;4974352;28;20436;-75
2021/06/08 10:02:43;;;;;;;21.13;17.90;;;21.30;99.90;;;;;;4992399;28;20026;-75
2021/06/08 10:05:23;;;;;;;21.73;18.70;;;21.20;99.90;;;;;;4975047;28;20085;-74
2021/06/08 10:08:04;;;;;;;23.95;18.40;;;21.10;99.90;;;;;;4992239;28;20031;-74
2021/06/08 10:10:40;;;;;;;27.83;20.52;;;20.90;99.90;;;;;;4991582;28;20026;-74
2021/06/08 10:13:07;;;;;;;23.33;19.02;;;20.70;99.90;;;;;;4992682;28;20105;-73
2021/06/08 10:15:35;;;;;;;28.42;22.23;;;21.00;99.90;;;;;;4992183;28;20022;-73
2021/06/08 10:18:05;;;;;;;23.75;18.63;;;21.10;99.90;;;;;;4992694;28;20544;-73
2021/06/08 10:20:37;;;;;;;22.13;19.13;;;21.30;99.90;;;;;;4973180;28;20042;-73
2021/06/08 10:23:26;;;;;;;22.50;19.45;;;21.20;99.90;;;;;;4991911;28;20113;-73
2021/06/08 10:25:54;;;;;;;23.17;20.05;;;20.90;99.90;;;;;;4991902;28;20109;-73
2021/06/08 10:28:20;;;;;;;21.75;18.70;;;21.00;99.90;;;;;;4992061;28;20081;-73
2021/06/08 10:30:48;;;;;;;25.10;21.08;;;21.10;99.90;;;;;;4991392;28;20042;-73
2021/06/08 10:33:13;;;;;;;26.63;23.30;;;21.10;99.90;;;;;;4991560;28;20463;-73
2021/06/08 10:35:40;;;;;;;26.63;21.08;;;21.50;99.90;;;;;;4991703;28;20105;-72
2021/06/08 10:38:07;;;;;;;27.38;20.80;;;21.30;99.90;;;;;;4991705;28;20065;-73
2021/06/08 10:40:35;;;;;;;25.98;22.25;;;21.10;99.90;;;;;;4992366;28;20037;-72
2021/06/08 10:43:02;;;;;;;22.23;19.92;;;21.40;99.90;;;;;;4996168;28;20448;-72
2021/06/08 10:45:37;;;;;;;21.13;18.83;;;21.20;99.90;;;;;;4995890;28;20492;-73
2021/06/08 10:48:18;;;;;;;24.65;20.98;;;21.60;99.90;;;;;;4996018;28;20473;-73
2021/06/08 10:50:47;;;;;;;25.23;21.77;;;21.70;99.90;;;;;;4995154;28;20026;-72
2021/06/08 10:53:30;;;;;;;29.38;22.80;;;21.50;99.90;;;;;;4995443;28;20034;-72
2021/06/08 10:55:56;;;;;;;;;;;21.30;99.90;;;;;;4996650;28;20104;-73
2021/06/08 10:58:50;;;;;;;28.00;23.38;;;20.90;99.90;;;;;;4978507;28;19905;-74
2021/06/08 11:04:05;;;;;;;24.08;21.48;;;21.00;99.90;;;;;;4996429;28;20115;-73
2021/06/08 11:06:55;;;;;;;25.48;22.52;;;21.20;99.90;;;;;;4996191;28;20588;-73
2021/06/08 11:09:24;;;;;;;24.98;21.48;;;21.60;99.90;;;;;;4962332;28;20108;-76
2021/06/08 11:11:58;;;;;;;24.23;21.63;;;21.80;99.90;;;;;;4978994;28;20037;-75
2021/06/08 11:14:30;;;;;;;23.73;21.00;;;22.10;99.90;;;;;;4996246;28;20112;-75
2021/06/08 11:16:57;;;;;;;;;;;22.50;99.90;;;;;;4979060;28;20037;-75
2021/06/08 11:19:45;;;;;;;26.83;22.15;;;22.40;99.90;;;;;;4995674;28;19914;-76
2021/06/08 11:22:15;;;;;;;24.13;21.65;;;22.40;99.90;;;;;;4941172;28;20133;-75
2021/06/08 11:24:46;;;;;;;22.63;20.20;;;22.80;99.90;;;;;;4977296;28;20036;-74
2021/06/08 11:27:12;;;;;;;21.53;19.33;;;22.90;99.90;;;;;;4995924;28;20018;-75
2021/06/08 11:29:55;;;;;;;24.15;21.20;;;23.00;99.90;;;;;;4993886;28;20270;-75
2021/06/08 11:32:31;;;;;;;21.67;19.63;;;23.00;99.90;;;;;;4995509;28;20014;-76
2021/06/08 11:35:24;;;;;;;25.38;21.05;;;23.30;99.90;;;;;;4995743;28;20085;-75
2021/06/08 11:37:59;;;;;;;23.88;21.40;;;23.40;99.90;;;;;;4978077;28;20076;-76
2021/06/08 11:40:39;;;;;;;27.60;22.25;;;23.00;99.90;;;;;;4995116;28;20535;-74
2021/06/08 11:43:10;;;;;;;25.33;22.83;;;22.80;99.90;;;;;;4995482;28;20073;-75
2021/06/08 11:45:38;;;;;;;31.50;24.85;;;22.80;99.90;;;;;;4995498;28;20031;-75
2021/06/08 11:48:24;;;;;;;23.33;20.88;;;23.10;99.90;;;;;;4993956;28;20033;-77
2021/06/08 11:50:50;;;;;;;30.15;23.65;;;23.40;99.90;;;;;;4956869;28;20105;-77
2021/06/08 11:53:16;;;;;;;21.85;19.58;;;24.30;99.90;;;;;;4975657;28;20058;-75
2021/06/08 11:55:44;;;;;;;23.70;21.17;;;24.80;99.90;;;;;;4972440;28;20054;-74
2021/06/08 11:58:34;;;;;;;22.17;19.92;;;25.70;99.90;;;;;;4958576;28;20117;-75
2021/06/08 12:01:00;;;;;;;24.42;20.42;;;25.10;99.90;;;;;;4965293;28;20049;-74
2021/06/08 12:03:31;;;;;;;22.98;20.67;;;24.60;99.90;;;;;;4975755;28;20044;-74
2021/06/08 12:05:57;;;;;;;22.23;20.02;;;24.80;99.90;;;;;;4979519;28;20074;-73
2021/06/08 12:08:27;;;;;;;22.52;19.70;;;24.40;99.90;;;;;;4978587;28;20106;-72
2021/06/08 12:10:53;;;;;;;24.30;21.95;;;25.20;99.90;;;;;;4974791;28;20353;-73
2021/06/08 12:13:30;;;;;;;22.08;19.98;;;25.20;99.90;;;;;;4975124;28;20026;-74
2021/06/08 12:15:57;;;;;;;26.75;23.95;;;25.10;99.90;;;;;;4974921;28;20027;-74
2021/06/08 12:18:37;;;;;;;27.70;24.60;;;25.20;99.90;;;;;;4974978;28;20055;-74
2021/06/08 12:21:12;;;;;;;28.63;25.45;;;25.10;99.90;;;;;;4974540;28;20037;-74
2021/06/08 12:23:39;;;;;;;29.60;26.60;;;24.60;99.90;;;;;;4958077;28;20129;-74
2021/06/08 12:26:09;;;;;;;27.90;24.30;;;24.70;99.90;;;;;;4994279;28;20026;-73
2021/06/08 12:28:36;;;;;;;29.40;25.73;;;24.00;99.90;;;;;;4976813;28;20022;-72
2021/06/08 12:31:13;;;;;;;27.48;24.67;;;23.70;99.90;;;;;;4993317;28;20026;-73
2021/06/08 12:33:39;;;;;;;27.73;25.02;;;23.60;99.90;;;;;;4976433;28;20033;-73
2021/06/08 12:36:06;;;;;;;27.95;25.10;;;24.40;99.90;;;;;;4993620;28;20033;-73
2021/06/08 12:38:32;;;;;;;25.23;22.67;;;24.80;99.90;;;;;;4993751;28;20030;-73
2021/06/08 12:41:09;;;;;;;22.45;20.25;;;25.50;99.90;;;;;;4993197;28;20031;-73
2021/06/08 12:43:43;;;;;;;21.73;19.55;;;26.40;99.90;;;;;;4993425;28;20026;-73
2021/06/08 12:46:09;;;;;;;24.85;22.35;;;27.00;99.90;;;;;;4994079;28;20110;-75
2021/06/08 12:48:35;;;;;;;21.67;19.67;;;27.80;99.90;;;;;;5000172;28;20050;-79
2021/06/08 12:51:12;;;;;;;22.30;20.02;;;27.00;99.90;;;;;;5012948;28;20034;-73